Time;durP1;ratioP1;P1;durP2;ratioP2;P2;SDS_P1;SDS_P2;PMS_P1;PMS_P2;Temp;Humidity;BMP_temperature;BMP_pressure;BME280_temperature;BME280_humidity;BME280_pressure;Samples;Min_cycle;Max_cycle;Signal;HPM_P1;HPM_P2
2023/12/17 00:08:46;;;;;;;8.93;2.40;;;;;;;;;;20699602;28;20219;-70
2023/12/17 00:18:47;;;;;;;3.73;2.40;;;;;;;;;;20678546;28;20277;-70
2023/12/17 00:28:49;;;;;;;5.10;2.60;;;;;;;;;;20665521;28;20227;-70
2023/12/17 00:38:51;;;;;;;3.77;1.50;;;;;;;;;;20701357;28;20638;-70
2023/12/17 00:48:53;;;;;;;2.90;1.57;;;;;;;;;;20665564;28;20284;-70
2023/12/17 00:58:55;;;;;;;3.07;1.53;;;;;;;;;;20661911;28;20829;-70
2023/12/17 01:08:56;;;;;;;3.20;1.70;;;;;;;;;;20699022;23;20259;-73
2023/12/17 01:18:58;;;;;;;1.90;1.27;;;;;;;;;;20692519;28;20638;-73
2023/12/17 01:29:00;;;;;;;7.37;1.87;;;;;;;;;;20611861;28;20375;-73
2023/12/17 01:39:01;;;;;;;2.67;1.73;;;;;;;;;;20621318;28;20212;-73
2023/12/17 01:49:03;;;;;;;8.30;3.97;;;;;;;;;;20633825;28;20221;-73
2023/12/17 01:59:05;;;;;;;3.40;2.27;;;;;;;;;;20630285;28;20275;-73
2023/12/17 02:09:07;;;;;;;2.90;1.97;;;;;;;;;;20666242;28;20277;-73
2023/12/17 02:19:08;;;;;;;2.10;1.40;;;;;;;;;;20646893;28;20262;-73
2023/12/17 02:29:10;;;;;;;2.33;1.40;;;;;;;;;;20612562;28;20275;-73
2023/12/17 02:39:12;;;;;;;1.30;1.07;;;;;;;;;;20629603;28;20702;-73
2023/12/17 02:49:14;;;;;;;2.27;1.57;;;;;;;;;;20639519;28;20224;-73
2023/12/17 02:59:15;;;;;;;2.60;1.27;;;;;;;;;;20641700;28;20216;-73
2023/12/17 03:09:17;;;;;;;2.37;1.40;;;;;;;;;;20622522;28;20332;-73
2023/12/17 03:19:18;;;;;;;2.53;1.80;;;;;;;;;;20617084;28;20199;-73
2023/12/17 03:29:20;;;;;;;2.53;1.70;;;;;;;;;;20623745;28;20270;-74
2023/12/17 03:39:22;;;;;;;7.63;2.07;;;;;;;;;;20632348;28;20204;-73
2023/12/17 03:49:24;;;;;;;3.67;2.00;;;;;;;;;;20598423;28;20220;-73
2023/12/17 03:59:25;;;;;;;2.63;1.47;;;;;;;;;;20617495;28;20747;-73
2023/12/17 04:09:27;;;;;;;2.70;1.63;;;;;;;;;;20634073;28;20212;-74
2023/12/17 04:19:29;;;;;;;3.77;1.60;;;;;;;;;;20627616;28;20262;-74
2023/12/17 04:29:31;;;;;;;4.33;1.90;;;;;;;;;;20629279;28;20266;-74
2023/12/17 04:39:32;;;;;;;3.27;1.80;;;;;;;;;;20639845;28;20262;-74
2023/12/17 04:49:35;;;;;;;2.47;1.83;;;;;;;;;;20630288;28;20255;-73
2023/12/17 04:59:37;;;;;;;2.87;2.23;;;;;;;;;;20650365;28;20207;-76
2023/12/17 05:09:38;;;;;;;3.10;1.57;;;;;;;;;;20661067;28;20597;-74
2023/12/17 05:19:40;;;;;;;1.70;1.13;;;;;;;;;;20638838;28;20216;-72
2023/12/17 05:29:42;;;;;;;6.10;1.63;;;;;;;;;;20637216;28;20244;-73
2023/12/17 05:39:43;;;;;;;4.17;2.30;;;;;;;;;;20631089;28;20211;-73
2023/12/17 05:49:45;;;;;;;2.63;1.83;;;;;;;;;;20641671;28;20258;-74
2023/12/17 05:59:47;;;;;;;3.40;2.20;;;;;;;;;;20634130;28;20469;-74
2023/12/17 06:09:48;;;;;;;3.00;2.33;;;;;;;;;;20653476;28;20988;-74
2023/12/17 06:19:50;;;;;;;2.90;1.90;;;;;;;;;;20630608;28;20220;-73
2023/12/17 06:29:54;;;;;;;3.03;2.00;;;;;;;;;;20632854;28;20298;-74
2023/12/17 06:39:55;;;;;;;8.57;5.87;;;;;;;;;;20626556;28;20212;-74
2023/12/17 06:49:57;;;;;;;4.07;2.97;;;;;;;;;;20633904;28;20567;-74
2023/12/17 06:59:59;;;;;;;4.43;2.80;;;;;;;;;;20608466;28;20246;-74
2023/12/17 07:10:00;;;;;;;4.37;2.37;;;;;;;;;;20717803;23;20207;-83
2023/12/17 07:20:02;;;;;;;1.87;1.50;;;;;;;;;;20749409;28;20683;-83
2023/12/17 07:30:05;;;;;;;2.40;2.17;;;;;;;;;;20707367;28;20285;-84
2023/12/17 07:40:07;;;;;;;2.47;1.60;;;;;;;;;;20694647;28;20207;-83
2023/12/17 07:50:09;;;;;;;2.63;1.77;;;;;;;;;;20722612;28;20227;-84
2023/12/17 08:00:14;;;;;;;3.83;1.77;;;;;;;;;;20702801;28;20688;-84
2023/12/17 08:10:16;;;;;;;3.40;2.67;;;;;;;;;;20723902;28;20614;-84
2023/12/17 08:20:18;;;;;;;3.57;2.60;;;;;;;;;;20735613;28;20696;-83
2023/12/17 08:30:19;;;;;;;2.50;1.60;;;;;;;;;;20744344;28;20246;-84
2023/12/17 08:40:21;;;;;;;4.90;2.70;;;;;;;;;;20728159;28;20219;-84
2023/12/17 08:50:23;;;;;;;3.20;2.43;;;;;;;;;;20725520;28;20316;-86
2023/12/17 09:00:25;;;;;;;4.37;1.73;;;;;;;;;;20730673;28;20261;-83
2023/12/17 09:10:27;;;;;;;3.03;2.33;;;;;;;;;;20771350;28;20235;-83
2023/12/17 09:20:29;;;;;;;3.60;2.23;;;;;;;;;;20719665;28;20219;-83
2023/12/17 09:30:31;;;;;;;2.93;1.80;;;;;;;;;;20725755;28;20242;-83
2023/12/17 09:40:32;;;;;;;3.90;2.07;;;;;;;;;;20726157;28;20215;-83
2023/12/17 09:50:34;;;;;;;2.13;1.83;;;;;;;;;;20713311;28;20631;-84
2023/12/17 10:00:36;;;;;;;3.07;2.13;;;;;;;;;;20725757;28;20285;-83
2023/12/17 10:10:38;;;;;;;3.50;2.00;;;;;;;;;;20732452;28;20238;-84
2023/12/17 10:20:39;;;;;;;3.37;2.30;;;;;;;;;;20763272;28;20565;-83
2023/12/17 10:30:42;;;;;;;3.10;2.23;;;;;;;;;;20702079;28;20281;-84
2023/12/17 10:40:44;;;;;;;3.73;3.13;;;;;;;;;;20740503;28;20207;-84
2023/12/17 10:50:47;;;;;;;2.97;2.20;;;;;;;;;;20731823;28;20227;-84
2023/12/17 11:00:50;;;;;;;4.60;2.37;;;3.80;99.90;;;;;;20801665;28;20291;-84
2023/12/17 11:10:56;;;;;;;3.87;2.93;;;;;;;;;;20762162;28;20219;-84
2023/12/17 11:20:58;;;;;;;4.80;3.40;;;;;;;;;;20726107;28;20211;-84
2023/12/17 11:30:59;;;;;;;4.53;2.90;;;;;;;;;;20734397;28;20219;-85
2023/12/17 11:41:01;;;;;;;6.40;3.90;;;;;;;;;;20715442;28;20242;-84
2023/12/17 11:51:03;;;;;;;3.73;2.70;;;;;;;;;;20750475;28;20753;-84
2023/12/17 12:01:06;;;;;;;6.97;3.00;;;;;;;;;;20730099;28;20676;-84
2023/12/17 12:11:10;;;;;;;5.93;3.30;;;4.70;99.90;;;;;;20715903;28;20226;-83
2023/12/17 12:21:16;;;;;;;4.47;2.50;;;;;;;;;;20687889;28;20265;-85
2023/12/17 12:31:18;;;;;;;4.73;2.77;;;;;;;;;;20697854;28;20270;-84
2023/12/17 12:41:19;;;;;;;4.03;2.50;;;;;;;;;;20699222;28;20249;-84
2023/12/17 12:51:21;;;;;;;3.10;2.10;;;;;;;;;;20742232;28;20684;-84
2023/12/17 13:01:23;;;;;;;5.27;2.30;;;;;;;;;;20694786;28;20262;-84
2023/12/17 13:11:25;;;;;;;3.43;2.17;;;;;;;;;;20755342;28;20293;-85
2023/12/17 13:21:26;;;;;;;3.70;2.43;;;;;;;;;;20745327;28;20246;-85
2023/12/17 13:31:30;;;;;;;3.80;2.20;;;;;;;;;;20770812;28;20242;-84
2023/12/17 13:41:32;;;;;;;4.60;2.57;;;;;;;;;;20728360;28;20281;-84
2023/12/17 13:51:34;;;;;;;4.03;2.63;;;;;;;;;;20747211;28;20231;-84
2023/12/17 14:01:36;;;;;;;3.20;2.30;;;;;;;;;;20729058;28;20627;-84
2023/12/17 14:11:40;;;;;;;6.07;2.50;;;;;;;;;;20741699;28;20306;-84
2023/12/17 14:21:41;;;;;;;3.03;2.23;;;;;;;;;;20721029;28;20223;-84
2023/12/17 14:31:43;;;;;;;2.90;1.97;;;;;;;;;;20696248;28;20231;-83
2023/12/17 14:41:45;;;;;;;3.47;2.00;;;;;;;;;;20710631;28;20207;-83
2023/12/17 14:51:47;;;;;;;3.50;2.07;;;;;;;;;;20747505;28;20223;-84
2023/12/17 15:01:53;;;;;;;2.37;1.47;;;;;;;;;;20696245;28;20211;-82
2023/12/17 15:11:56;;;;;;;3.90;2.13;;;;;;;;;;20741845;28;20300;-83
2023/12/17 15:21:57;;;;;;;2.20;1.50;;;;;;;;;;20757874;28;20224;-83
2023/12/17 15:31:59;;;;;;;2.73;1.40;;;;;;;;;;20758102;28;20227;-84
2023/12/17 15:42:04;;;;;;;2.87;1.70;;;;;;;;;;20729983;28;20224;-84
2023/12/17 15:52:06;;;;;;;3.73;1.47;;;;;;;;;;20746663;28;20214;-84
2023/12/17 16:02:08;;;;;;;3.00;1.97;;;;;;;;;;20701808;28;20267;-83
2023/12/17 16:12:10;;;;;;;2.87;1.93;;;;;;;;;;20755117;28;20219;-82
2023/12/17 16:22:11;;;;;;;9.73;2.50;;;;;;;;;;20737015;28;20653;-85
2023/12/17 16:32:13;;;;;;;10.83;5.57;;;;;;;;;;20780716;28;20219;-83
2023/12/17 16:42:15;;;;;;;4.37;2.57;;;;;;;;;;20768824;28;20227;-83
2023/12/17 16:52:16;;;;;;;4.30;2.60;;;;;;;;;;20768370;28;20223;-83
2023/12/17 17:02:18;;;;;;;3.77;2.73;;;;;;;;;;20745791;28;20261;-83
2023/12/17 17:12:20;;;;;;;4.80;3.20;;;;;;;;;;20666078;28;20235;-84
2023/12/17 17:22:21;;;;;;;3.63;2.37;;;;;;;;;;20612821;28;20215;-83
2023/12/17 17:32:23;;;;;;;3.63;2.40;;;;;;;;;;20737241;28;20703;-83
2023/12/17 17:42:25;;;;;;;4.80;3.00;;;;;;;;;;20743843;28;20218;-84
2023/12/17 17:52:30;;;;;;;3.40;2.20;;;;;;;;;;20658427;28;20284;-84
2023/12/17 18:02:35;;;;;;;4.53;2.47;;;;;;;;;;20730246;28;20211;-84
2023/12/17 18:12:36;;;;;;;3.17;2.40;;;;;;;;;;20687731;28;20234;-86
2023/12/17 18:22:38;;;;;;;2.90;2.27;;;;;;;;;;20779387;28;20211;-85
2023/12/17 18:32:40;;;;;;;3.57;2.33;;;;;;;;;;20744705;28;20247;-85
2023/12/17 18:42:42;;;;;;;3.00;2.10;;;;;;;;;;20726180;28;20220;-84
2023/12/17 18:52:44;;;;;;;2.43;1.60;;;;;;;;;;20728720;28;20226;-85
2023/12/17 19:02:46;;;;;;;7.50;2.30;;;;;;;;;;20778454;28;20230;-85
2023/12/17 19:12:48;;;;;;;2.10;1.77;;;;;;;;;;20729044;28;20223;-84
2023/12/17 19:22:50;;;;;;;5.97;2.00;;;;;;;;;;20697332;28;20292;-84
2023/12/17 19:44:20;;;;;;;2.43;1.93;;;;;;;;;;20751339;28;20630;-85
2023/12/17 19:54:22;;;;;;;2.10;1.33;;;;;;;;;;20740145;28;20268;-84
2023/12/17 20:04:24;;;;;;;3.57;2.27;;;;;;;;;;20711774;28;20215;-85
2023/12/17 20:15:32;;;;;;;3.33;2.40;;;;;;;;;;20724399;28;20226;-89
2023/12/17 20:36:20;;;;;;;2.33;1.83;;;;;;;;;;21282912;27;20936;-66
2023/12/17 20:46:22;;;;;;;2.17;1.33;;;;;;;;;;21139298;27;20211;-66
2023/12/17 20:56:24;;;;;;;2.73;1.57;;;;;;;;;;21206062;27;20267;-67
2023/12/17 21:06:29;;;;;;;7.40;1.60;;;2.20;99.90;;;;;;21186651;27;20251;-66
